Flugwetter

METAR EDDW
2021/03/06 14:20 EDDW 061420Z 28010KT 9999 SCT013 BKN040 06/02 Q1031 NOSIG
TAF EDDW
2021/03/06 12:27 TAF EDDW 061100Z 0612/0712 27008KT 9999 BKN020 TEMPO 0612/0616 BKN012 BECMG 0619/0621 27003KT TEMPO 0622/0709 4000 BR BKN003 PROB40 TEMPO 0700/0707 0800 FZFG BKN001 BECMG 0706/0709 27008KT PROB30 TEMPO 0709/0711 BKN010
METAR EDDH
2021/03/06 14:20 EDDH 061420Z 30015KT 9999 FEW025 BKN032 06/01 Q1030 NOSIG
TAF EDDH
2021/03/06 14:37 TAF AMD EDDH 061429Z 0614/0718 29012KT 9999 BKN015 BECMG 0620/0622 27007KT TEMPO 0700/0709 3500 -DZ BKN003 PROB40 TEMPO 0709/0711 BKN010 PROB30 TEMPO 0711/0714 29015G25KT TEMPO 0716/0718 BKN012
METAR VRMM
2021/03/06 14:00 VRMM 061400Z 07007KT 9999 FEW018 29/24 Q1011 NOSIG
TAF VRMM
2021/03/06 12:12 TAF VRMM 061100Z 0612/0718 07006KT 9999 FEW018

Quelle:

Bereitgestellt von den Servern der NOAA tgftp.nws.noaa.gov
Alle Angaben ohne Gewähr